createdAt,value
2019-04-03T00:01:17.586Z,9.40
2019-04-03T00:03:46.437Z,9.40
2019-04-03T00:06:15.325Z,9.40
2019-04-03T00:08:44.225Z,9.40
2019-04-03T00:11:13.092Z,9.40
2019-04-03T00:13:42.548Z,9.30
2019-04-03T00:16:11.587Z,9.20
2019-04-03T00:18:40.560Z,9.10
2019-04-03T00:21:09.355Z,8.90
2019-04-03T00:23:38.251Z,8.80
2019-04-03T00:26:07.214Z,8.80
2019-04-03T00:28:35.991Z,8.70
2019-04-03T00:31:04.845Z,8.70
2019-04-03T00:33:33.688Z,8.70
2019-04-03T00:36:02.514Z,8.70
2019-04-03T00:38:31.447Z,8.70
2019-04-03T00:41:00.322Z,8.60
2019-04-03T00:43:29.259Z,8.50
2019-04-03T00:45:58.031Z,8.40
2019-04-03T00:48:26.826Z,8.40
2019-04-03T00:50:57.283Z,8.30
2019-04-03T00:53:27.644Z,8.20
2019-04-03T00:55:57.056Z,8.10
2019-04-03T00:58:39.919Z,8.10
2019-04-03T01:01:11.161Z,8.10
2019-04-03T01:03:40.830Z,8.10
2019-04-03T01:06:12.862Z,8.00
2019-04-03T01:08:41.683Z,8.00
2019-04-03T01:11:10.543Z,7.90
2019-04-03T01:13:39.424Z,7.70
2019-04-03T01:16:08.285Z,7.60
2019-04-03T01:18:37.311Z,7.60
2019-04-03T01:21:06.850Z,7.60
2019-04-03T01:23:38.008Z,7.60
2019-04-03T01:26:09.143Z,7.60
2019-04-03T01:28:37.012Z,7.60
2019-04-03T01:31:05.777Z,7.60
2019-04-03T01:33:34.653Z,7.60
2019-04-03T01:36:03.476Z,7.60
2019-04-03T01:38:32.346Z,7.60
2019-04-03T01:41:01.215Z,7.60
2019-04-03T01:43:30.063Z,7.50
2019-04-03T01:45:59.200Z,7.50
2019-04-03T01:48:28.442Z,7.50
2019-04-03T01:50:59.230Z,7.50
2019-04-03T01:53:28.418Z,7.60
2019-04-03T01:55:57.209Z,7.70
2019-04-03T01:58:26.079Z,7.60
2019-04-03T02:00:54.860Z,7.70
2019-04-03T02:03:23.703Z,7.80
2019-04-03T02:05:52.560Z,7.90
2019-04-03T02:08:21.471Z,7.90
2019-04-03T02:10:50.418Z,7.90
2019-04-03T02:13:21.217Z,7.90
2019-04-03T02:15:52.161Z,7.90
2019-04-03T02:18:20.207Z,7.90
2019-04-03T02:20:49.050Z,7.90
2019-04-03T02:23:17.935Z,8.00
2019-04-03T02:25:46.711Z,8.10
2019-04-03T02:28:15.603Z,8.10
2019-04-03T02:30:46.057Z,8.20
2019-04-03T02:33:15.102Z,8.00
2019-04-03T02:35:43.984Z,8.10
2019-04-03T02:38:12.861Z,8.20
2019-04-03T02:40:41.679Z,8.10
2019-04-03T02:43:13.443Z,8.10
2019-04-03T02:45:41.000Z,8.10
2019-04-03T02:48:09.845Z,8.10
2019-04-03T02:50:38.792Z,8.20
2019-04-03T02:53:07.916Z,8.20
2019-04-03T02:55:39.163Z,8.20
2019-04-03T02:58:07.341Z,8.20
2019-04-03T03:00:36.154Z,8.10
2019-04-03T03:03:05.185Z,8.00
2019-04-03T03:05:34.266Z,7.90
2019-04-03T03:08:03.258Z,7.90
2019-04-03T03:10:33.103Z,7.90
2019-04-03T03:13:02.472Z,7.90
2019-04-03T03:15:32.202Z,7.80
2019-04-03T03:18:01.508Z,7.80
2019-04-03T03:20:33.365Z,7.80
2019-04-03T03:23:02.557Z,7.90
2019-04-03T03:25:33.609Z,7.90
2019-04-03T03:28:02.964Z,7.80
2019-04-03T03:30:41.136Z,7.80
2019-04-03T03:33:24.255Z,7.70
2019-04-03T03:35:40.481Z,7.70
2019-04-03T03:38:06.980Z,7.70
2019-04-03T03:40:36.786Z,7.70
2019-04-03T03:43:06.692Z,7.70
2019-04-03T03:45:35.848Z,7.70
2019-04-03T03:48:08.183Z,7.70
2019-04-03T03:50:36.975Z,7.60
2019-04-03T03:53:10.242Z,7.60
2019-04-03T03:55:36.944Z,7.60
2019-04-03T03:58:06.031Z,7.60
2019-04-03T04:00:35.437Z,7.60
2019-04-03T04:03:04.368Z,7.60
2019-04-03T04:05:33.662Z,7.60
2019-04-03T04:08:02.529Z,7.60
2019-04-03T04:10:35.477Z,7.50
2019-04-03T04:13:02.102Z,7.40
2019-04-03T04:15:31.740Z,7.40
2019-04-03T04:18:00.717Z,7.50
2019-04-03T04:20:30.099Z,7.60
2019-04-03T04:22:59.812Z,7.60
2019-04-03T04:25:30.541Z,7.70
2019-04-03T04:28:00.611Z,7.80
2019-04-03T04:30:30.188Z,7.80
2019-04-03T04:32:59.126Z,7.80
2019-04-03T04:35:28.070Z,7.80
2019-04-03T04:37:56.907Z,7.80
2019-04-03T04:40:25.780Z,7.90
2019-04-03T04:42:54.674Z,7.90
2019-04-03T04:45:23.525Z,7.90
2019-04-03T04:47:52.312Z,7.90
2019-04-03T04:50:25.313Z,7.90
2019-04-03T04:52:54.988Z,7.90
2019-04-03T04:55:23.915Z,7.80
2019-04-03T04:57:52.812Z,7.80
2019-04-03T05:00:21.869Z,7.70
2019-04-03T05:02:51.501Z,7.70
2019-04-03T05:05:20.300Z,7.60
2019-04-03T05:07:49.203Z,7.60
2019-04-03T05:10:18.190Z,7.60
2019-04-03T05:12:47.091Z,7.60
2019-04-03T05:15:16.032Z,7.60
2019-04-03T05:17:44.905Z,7.60
2019-04-03T05:20:14.768Z,7.60
2019-04-03T05:22:43.835Z,7.60
2019-04-03T05:25:12.707Z,7.60
2019-04-03T05:27:41.607Z,7.70
2019-04-03T05:30:10.762Z,7.70
2019-04-03T05:32:41.187Z,7.70
2019-04-03T05:35:10.040Z,7.70
2019-04-03T05:37:38.990Z,7.80
2019-04-03T05:40:07.823Z,7.80
2019-04-03T05:42:36.669Z,7.90
2019-04-03T05:45:07.224Z,8.00
2019-04-03T05:47:38.731Z,8.10
2019-04-03T05:50:07.503Z,8.30
2019-04-03T05:52:36.561Z,8.40
2019-04-03T05:55:08.018Z,8.50
2019-04-03T05:57:37.090Z,8.70
2019-04-03T06:00:07.563Z,8.80
2019-04-03T06:02:36.414Z,9.00
2019-04-03T06:05:07.138Z,9.30
2019-04-03T06:07:36.407Z,9.50
2019-04-03T06:10:06.770Z,9.70
2019-04-03T06:12:37.250Z,10.00
2019-04-03T06:15:09.466Z,10.10
2019-04-03T06:17:38.042Z,10.30
2019-04-03T06:20:10.321Z,10.40
2019-04-03T06:22:37.422Z,10.50
2019-04-03T06:25:10.396Z,10.60
2019-04-03T06:27:40.576Z,10.60
2019-04-03T06:30:08.527Z,10.60
2019-04-03T06:32:37.615Z,10.40
2019-04-03T06:35:07.079Z,10.40
2019-04-03T06:37:35.962Z,10.40
2019-04-03T06:40:08.249Z,10.30
2019-04-03T06:42:37.130Z,10.30
2019-04-03T06:45:09.155Z,10.30
2019-04-03T06:47:38.042Z,10.40
2019-04-03T06:50:12.202Z,10.40
2019-04-03T06:52:40.559Z,10.50
2019-04-03T06:55:09.488Z,10.50
2019-04-03T06:57:39.466Z,10.50
2019-04-03T07:00:09.041Z,10.60
2019-04-03T07:02:37.933Z,10.70
2019-04-03T07:05:09.669Z,10.90
2019-04-03T07:07:37.520Z,11.20
2019-04-03T07:10:08.845Z,11.50
2019-04-03T07:12:37.841Z,11.80
2019-04-03T07:15:08.126Z,12.30
2019-04-03T07:17:37.112Z,13.10
2019-04-03T07:20:13.464Z,14.30
2019-04-03T07:22:38.013Z,14.90
2019-04-03T07:25:07.486Z,15.90
2019-04-03T07:27:37.406Z,16.90
2019-04-03T07:30:08.511Z,17.90
2019-04-03T07:32:37.524Z,18.90
2019-04-03T07:35:10.154Z,19.80
2019-04-03T07:37:37.617Z,20.20
2019-04-03T07:40:08.031Z,20.00
2019-04-03T07:42:36.951Z,20.30
2019-04-03T07:45:07.962Z,20.80
2019-04-03T07:47:36.856Z,21.30
2019-04-03T07:50:10.403Z,21.90
2019-04-03T07:52:38.176Z,22.30
2019-04-03T07:55:07.373Z,22.00
2019-04-03T07:57:37.115Z,21.50
2019-04-03T08:00:10.299Z,21.00
2019-04-03T08:02:39.230Z,20.70
2019-04-03T08:05:08.756Z,20.50
2019-04-03T08:07:37.686Z,20.60
2019-04-03T08:10:07.060Z,20.20
2019-04-03T08:12:36.056Z,19.40
2019-04-03T08:15:07.311Z,18.40
2019-04-03T08:17:36.148Z,17.50
2019-04-03T08:20:07.013Z,16.90
2019-04-03T08:22:35.879Z,16.70
2019-04-03T08:25:06.858Z,16.60
2019-04-03T08:27:36.903Z,16.40
2019-04-03T08:30:08.531Z,16.20
2019-04-03T08:32:37.642Z,16.30
2019-04-03T08:35:19.309Z,16.50
2019-04-03T08:37:41.967Z,16.80
2019-04-03T08:40:09.443Z,17.40
2019-04-03T08:42:38.192Z,17.90
2019-04-03T08:45:14.007Z,18.50
2019-04-03T08:47:45.331Z,18.80
2019-04-03T08:50:14.091Z,19.00
2019-04-03T08:52:43.075Z,18.70
2019-04-03T08:55:14.043Z,18.20
2019-04-03T08:57:45.371Z,18.30
2019-04-03T09:00:13.255Z,18.30
2019-04-03T09:02:43.517Z,18.40
2019-04-03T09:05:14.352Z,18.60
2019-04-03T09:07:43.408Z,18.50
2019-04-03T09:10:12.797Z,18.70
2019-04-03T09:12:42.018Z,19.00
2019-04-03T09:15:11.310Z,19.50
2019-04-03T09:17:40.202Z,19.50
2019-04-03T09:20:12.218Z,19.40
2019-04-03T09:22:39.813Z,19.00
2019-04-03T09:25:08.836Z,18.50
2019-04-03T09:27:37.969Z,18.40
2019-04-03T09:30:10.698Z,18.80
2019-04-03T09:32:39.432Z,19.30
2019-04-03T09:35:08.225Z,19.70
2019-04-03T09:37:38.136Z,19.80
2019-04-03T09:40:07.724Z,19.80
2019-04-03T09:42:36.461Z,19.70
2019-04-03T09:45:06.776Z,19.90
2019-04-03T09:47:35.763Z,20.30
2019-04-03T09:50:06.851Z,20.30
2019-04-03T09:52:42.082Z,20.70
2019-04-03T09:55:06.613Z,21.00
2019-04-03T09:57:35.404Z,20.90
2019-04-03T10:00:10.595Z,20.40
2019-04-03T11:05:57.252Z,17.90
2019-04-03T11:08:26.118Z,17.60
2019-04-03T11:10:55.933Z,17.80
2019-04-03T11:13:25.748Z,17.90
2019-04-03T11:15:54.698Z,18.20
2019-04-03T11:18:23.893Z,18.70
2019-04-03T11:20:52.825Z,18.80
2019-04-03T11:23:35.761Z,19.00
2019-04-03T11:25:52.536Z,19.30
2019-04-03T11:28:23.176Z,19.40
2019-04-03T11:30:53.122Z,19.60
2019-04-03T11:33:22.361Z,19.70
2019-04-03T11:36:11.336Z,20.00
2019-04-03T11:41:23.911Z,20.80
2019-04-03T11:43:53.004Z,20.80
2019-04-03T11:46:22.083Z,20.30
2019-04-03T11:48:51.070Z,19.80
2019-04-03T11:51:20.029Z,19.70
2019-04-03T11:53:49.088Z,19.60
2019-04-03T11:56:18.021Z,19.60
2019-04-03T11:58:46.884Z,19.70
2019-04-03T12:01:16.819Z,19.60
2019-04-03T12:03:45.662Z,19.30
2019-04-03T12:06:15.865Z,18.90
2019-04-03T12:08:45.685Z,18.50
2019-04-03T12:11:14.837Z,18.50
2019-04-03T12:13:46.285Z,18.60
2019-04-03T12:16:15.488Z,18.90
2019-04-03T12:18:44.329Z,19.00
2019-04-03T12:21:14.193Z,18.90
2019-04-03T12:23:43.505Z,18.90
2019-04-03T12:26:12.641Z,19.10
2019-04-03T12:28:41.889Z,19.50
2019-04-03T12:31:10.757Z,19.50
2019-04-03T12:33:51.670Z,18.60
2019-04-03T12:36:11.093Z,18.50
2019-04-03T12:38:40.870Z,18.80
2019-04-03T12:41:10.849Z,19.40
2019-04-03T12:43:39.734Z,19.70
2019-04-03T12:46:08.488Z,19.60
2019-04-03T12:48:37.299Z,19.50
2019-04-03T12:51:06.441Z,19.10
2019-04-03T12:53:35.617Z,18.90
2019-04-03T12:56:04.404Z,18.90
2019-04-03T12:58:34.053Z,19.50
2019-04-03T13:01:03.641Z,19.70
2019-04-03T13:03:32.509Z,19.50
2019-04-03T13:06:01.596Z,19.70
2019-04-03T13:08:30.542Z,20.10
2019-04-03T13:10:59.469Z,20.10
2019-04-03T13:13:28.905Z,19.90
2019-04-03T13:15:57.685Z,20.00
2019-04-03T13:18:26.500Z,20.30
2019-04-03T13:20:55.339Z,20.50
2019-04-03T16:44:17.971Z,16.50
2019-04-03T16:46:47.701Z,16.40
2019-04-03T16:49:16.581Z,16.30
2019-04-03T16:51:45.423Z,16.30
2019-04-03T16:54:14.357Z,16.20
2019-04-03T16:56:43.742Z,16.20
2019-04-03T16:59:12.845Z,16.20
2019-04-03T17:01:53.339Z,16.20
2019-04-03T17:04:26.101Z,16.20
2019-04-03T17:06:54.700Z,16.10
2019-04-03T17:09:23.544Z,16.10
2019-04-03T17:11:52.439Z,16.00
2019-04-03T17:14:43.713Z,16.00
2019-04-03T17:18:03.580Z,15.60
2019-04-03T17:23:49.475Z,12.90
2019-04-03T17:26:48.777Z,12.10
2019-04-03T17:29:41.680Z,11.50
2019-04-03T17:32:09.931Z,10.90
2019-04-03T17:34:43.977Z,10.40
2019-04-03T17:37:13.737Z,9.70
2019-04-03T17:39:55.415Z,9.50
2019-04-03T17:42:30.874Z,9.20
2019-04-03T17:45:05.662Z,8.90
2019-04-03T17:47:31.128Z,8.70
2019-04-03T17:50:10.970Z,8.60
2019-04-03T17:52:41.109Z,8.40
2019-04-03T17:55:17.231Z,8.20
2019-04-03T17:57:46.078Z,8.10
2019-04-03T18:00:20.938Z,8.00
2019-04-03T18:02:50.365Z,7.90
2019-04-03T18:05:20.502Z,7.90
2019-04-03T18:07:54.001Z,7.80
2019-04-03T18:10:21.344Z,7.70
2019-04-03T18:12:52.339Z,7.70
2019-04-03T18:15:20.700Z,7.60
2019-04-03T18:17:50.581Z,7.50
2019-04-03T18:20:19.427Z,7.50
2019-04-03T18:22:50.376Z,7.40
2019-04-03T18:25:19.725Z,7.40
2019-04-03T18:27:51.310Z,7.40
2019-04-03T18:30:20.418Z,7.30
2019-04-03T18:32:49.257Z,7.30
2019-04-03T18:35:19.863Z,7.20
2019-04-03T18:37:48.725Z,7.00
2019-04-03T18:40:22.394Z,6.90
2019-04-03T18:42:50.981Z,6.80
2019-04-03T18:45:25.432Z,6.70
2019-04-03T18:47:51.100Z,6.70
2019-04-03T18:50:20.187Z,6.70
2019-04-03T18:52:49.209Z,6.60
2019-04-03T18:55:19.077Z,6.60
2019-04-03T18:57:50.525Z,6.60
2019-04-03T19:00:19.721Z,6.60
2019-04-03T19:02:50.078Z,6.60
2019-04-03T19:05:18.998Z,6.70
2019-04-03T19:07:50.508Z,6.70
2019-04-03T19:10:24.829Z,6.60
2019-04-03T19:12:56.034Z,6.60
2019-04-03T19:15:25.089Z,6.60
2019-04-03T19:18:00.378Z,6.60
2019-04-03T19:20:33.643Z,6.60
2019-04-03T19:23:07.096Z,6.60
2019-04-03T19:25:36.036Z,6.50
2019-04-03T19:28:06.440Z,6.50
2019-04-03T19:30:38.510Z,6.50
2019-04-03T19:33:08.619Z,6.40
2019-04-03T19:35:48.354Z,6.40
2019-04-03T19:38:14.674Z,6.40
2019-04-03T19:40:43.525Z,6.40
2019-04-03T19:43:14.663Z,6.30
2019-04-03T19:45:42.916Z,6.30
2019-04-03T19:48:11.863Z,6.30
2019-04-03T19:50:40.899Z,6.40
2019-04-03T19:53:12.945Z,6.40
2019-04-03T19:55:40.197Z,6.40
2019-04-03T19:58:09.064Z,6.40
2019-04-03T20:00:37.983Z,6.40
2019-04-03T20:03:06.841Z,6.40
2019-04-03T20:05:35.695Z,6.40
2019-04-03T20:08:04.638Z,6.40
2019-04-03T20:10:33.781Z,6.40
2019-04-03T20:13:03.156Z,6.30
2019-04-03T20:15:38.720Z,6.40
2019-04-03T20:20:58.955Z,6.30
2019-04-03T20:24:00.349Z,6.20
2019-04-03T20:26:20.808Z,6.30
2019-04-03T20:28:49.703Z,6.30
2019-04-03T20:31:18.536Z,6.40
2019-04-03T20:33:47.471Z,6.30
2019-04-03T20:36:16.727Z,6.40
2019-04-03T20:38:45.734Z,6.30
2019-04-03T20:41:14.568Z,6.30
2019-04-03T20:43:47.061Z,6.30
2019-04-03T20:46:13.972Z,6.30
2019-04-03T20:48:42.887Z,6.20
2019-04-03T20:51:11.718Z,6.20
2019-04-03T20:53:40.638Z,6.10
2019-04-03T20:56:09.514Z,6.10
2019-04-03T20:58:40.723Z,6.10
2019-04-03T21:01:08.758Z,6.20
2019-04-03T21:03:37.713Z,6.20
2019-04-03T21:06:06.628Z,6.30
2019-04-03T21:08:35.589Z,6.30
2019-04-03T21:11:04.512Z,6.30
2019-04-03T21:13:33.385Z,6.30
2019-04-03T21:16:02.235Z,6.30
2019-04-03T21:18:31.131Z,6.20
2019-04-03T21:21:01.466Z,6.20
2019-04-03T21:23:33.303Z,6.20
2019-04-03T21:26:01.142Z,6.20
2019-04-03T21:28:33.030Z,6.30
2019-04-03T21:31:01.860Z,6.30
2019-04-03T21:33:31.354Z,6.30
2019-04-03T21:36:00.500Z,6.40
2019-04-03T21:38:29.434Z,6.40
2019-04-03T21:40:58.304Z,6.50
2019-04-03T21:43:28.947Z,6.50
2019-04-03T21:45:58.328Z,6.40
2019-04-03T21:48:27.321Z,6.40
2019-04-03T21:51:12.878Z,6.40
2019-04-03T21:53:41.778Z,6.40
2019-04-03T21:56:10.671Z,6.40
2019-04-03T21:58:39.730Z,6.40
2019-04-03T22:01:14.491Z,6.50
2019-04-03T22:03:42.653Z,6.50
2019-04-03T22:06:11.496Z,6.40
2019-04-03T22:08:40.384Z,6.40
2019-04-03T22:11:09.220Z,6.40
2019-04-03T22:13:38.485Z,6.40
2019-04-03T22:16:07.933Z,6.40
2019-04-03T22:18:36.833Z,6.50
2019-04-03T22:21:05.663Z,6.50
2019-04-03T22:23:35.941Z,6.50
2019-04-03T22:26:05.539Z,6.50
2019-04-03T22:28:34.394Z,6.60
2019-04-03T22:31:03.276Z,6.50
2019-04-03T22:33:32.120Z,6.60
2019-04-03T22:36:02.960Z,6.60
2019-04-03T22:38:31.502Z,6.60
2019-04-03T22:41:00.338Z,6.60
2019-04-03T22:43:29.214Z,6.60
2019-04-03T22:45:58.080Z,6.60
2019-04-03T22:48:27.656Z,6.60
2019-04-03T22:50:56.580Z,6.60
2019-04-03T22:53:25.673Z,6.60
2019-04-03T22:55:54.522Z,6.60
2019-04-03T22:58:23.415Z,6.60
2019-04-03T23:00:52.348Z,6.60
2019-04-03T23:03:21.223Z,6.50
2019-04-03T23:05:50.083Z,6.40
2019-04-03T23:08:19.014Z,6.50
2019-04-03T23:10:47.873Z,6.50
2019-04-03T23:13:17.280Z,6.60
2019-04-03T23:15:46.156Z,6.60
2019-04-03T23:18:15.930Z,6.50
2019-04-03T23:20:45.188Z,6.50
2019-04-03T23:23:13.886Z,6.60
2019-04-03T23:25:42.604Z,6.60
2019-04-03T23:28:11.465Z,6.60
2019-04-03T23:30:40.988Z,6.60
2019-04-03T23:33:10.366Z,6.50
2019-04-03T23:35:39.238Z,6.60
2019-04-03T23:38:08.102Z,6.50
2019-04-03T23:40:36.989Z,6.60
2019-04-03T23:43:08.550Z,6.60
2019-04-03T23:45:36.408Z,6.60
2019-04-03T23:48:07.441Z,6.50
2019-04-03T23:50:36.320Z,6.60
2019-04-03T23:53:05.161Z,6.60
2019-04-03T23:55:34.345Z,6.60
2019-04-03T23:58:04.557Z,6.60
